Time;durP1;ratioP1;P1;durP2;ratioP2;P2;SDS_P1;SDS_P2;PMS_P1;PMS_P2;Temp;Humidity;BMP_temperature;BMP_pressure;BME280_temperature;BME280_humidity;BME280_pressure;Samples;Min_cycle;Max_cycle;Signal;HPM_P1;HPM_P2
2023/04/13 07:01:03;;;;;;;;;3.75;2.50;;;;;9.25;63.39;100324.09;6183831;22;46140;-69
2023/04/13 07:03:29;;;;;;;;;3.00;3.00;;;;;9.28;62.84;100296.88;6268009;22;45439;-69
2023/04/13 07:05:54;;;;;;;;;4.75;1.00;;;;;9.47;62.44;100314.00;6275815;22;45354;-69
2023/04/13 07:08:20;;;;;;;;;4.00;3.00;;;;;9.53;62.71;100301.81;6250151;22;45181;-69
2023/04/13 07:10:45;;;;;;;;;4.50;3.75;;;;;9.67;63.01;100296.81;6277483;22;45341;-70
2023/04/13 07:13:11;;;;;;;;;2.00;1.50;;;;;9.72;62.76;100278.41;6276777;22;46175;-69
2023/04/13 07:15:36;;;;;;;;;5.00;2.00;;;;;9.97;61.12;100306.16;6277938;22;45298;-69
2023/04/13 07:18:02;;;;;;;;;5.75;3.00;;;;;10.16;62.14;100323.25;6275498;22;45235;-70
2023/04/13 07:20:27;;;;;;;;;5.00;2.00;;;;;10.10;61.83;100289.69;6277887;22;45273;-69
2023/04/13 07:22:53;;;;;;;;;2.25;1.25;;;;;10.16;61.04;100296.84;6277580;22;46591;-71
2023/04/13 07:25:20;;;;;;;;;2.75;2.00;;;;;10.36;60.41;100308.66;6277978;22;45289;-69
2023/04/13 07:27:45;;;;;;;;;4.75;3.00;;;;;10.24;60.80;100271.44;6277731;22;45236;-70
2023/04/13 07:30:11;;;;;;;;;4.50;3.50;;;;;10.60;60.16;100323.19;6277684;22;45145;-70
2023/04/13 07:32:37;;;;;;;;;3.25;2.50;;;;;10.73;60.07;100328.69;6249277;22;48294;-70
2023/04/13 07:35:02;;;;;;;;;4.00;2.50;;;;;10.63;59.74;100287.09;6277763;22;45292;-70
2023/04/13 07:37:28;;;;;;;;;2.75;1.75;;;;;10.98;59.67;100327.31;6277974;22;45213;-70
2023/04/13 07:39:53;;;;;;;;;6.25;2.50;;;;;11.18;59.09;100343.47;6249597;22;45522;-73
2023/04/13 07:42:19;;;;;;;;;4.75;2.00;;;;;11.19;58.90;100308.19;6277602;22;45258;-70
2023/04/13 07:44:44;;;;;;;;;3.75;2.25;;;;;11.46;57.44;100327.09;6277603;22;45247;-71
2023/04/13 07:47:11;;;;;;;;;5.50;2.75;;;;;11.61;58.00;100336.09;6249503;22;45575;-70
2023/04/13 07:49:37;;;;;;;;;5.25;2.50;;;;;11.82;57.88;100348.72;6277265;22;45251;-70
2023/04/13 07:52:03;;;;;;;;;5.00;2.50;;;;;11.99;58.20;100342.78;6276691;22;46214;-71
2023/04/13 07:54:28;;;;;;;;;2.00;2.00;;;;;11.97;56.78;100310.97;6250012;22;45810;-70
2023/04/13 07:56:55;;;;;;;;;3.50;3.00;;;;;12.31;57.75;100343.97;6249564;22;46734;-71
2023/04/13 07:59:21;;;;;;;;;6.00;4.00;;;;;12.50;56.66;100342.41;6277812;22;45209;-71
2023/04/13 08:01:46;;;;;;;;;2.50;1.25;;;;;12.64;56.20;100358.44;6275959;22;45531;-71
2023/04/13 08:04:11;;;;;;;;;5.50;3.00;;;;;12.60;55.76;100330.09;6277965;22;45238;-71
2023/04/13 08:06:37;;;;;;;;;4.75;2.00;;;;;12.73;55.31;100333.75;6277567;22;45161;-71
2023/04/13 08:09:02;;;;;;;;;2.50;2.50;;;;;12.99;55.00;100366.69;6276736;22;45380;-72
2023/04/13 08:11:28;;;;;;;;;4.25;2.00;;;;;12.98;53.28;100356.94;6249493;22;47915;-71
2023/04/13 08:13:53;;;;;;;;;2.00;2.00;;;;;13.01;53.99;100373.75;6277809;22;45172;-71
2023/04/13 08:16:18;;;;;;;;;1.00;1.00;;;;;12.91;54.96;100367.47;6249080;22;45340;-71
2023/04/13 08:18:44;;;;;;;;;4.25;3.50;;;;;12.94;52.85;100363.09;6249304;22;45892;-71
2023/04/13 08:21:11;;;;;;;;;2.00;2.00;;;;;12.99;54.38;100364.03;6249314;22;46622;-72
2023/04/13 08:23:39;;;;;;;;;4.25;2.25;;;;;13.00;54.42;100378.19;6278080;22;45318;-71
2023/04/13 08:26:04;;;;;;;;;4.75;3.25;;;;;12.98;53.42;100379.94;6277438;22;45299;-71
2023/04/13 08:28:31;;;;;;;;;1.00;1.00;;;;;13.00;54.25;100386.16;6277793;22;45276;-71
2023/04/13 08:30:56;;;;;;;;;4.75;1.50;;;;;12.86;54.06;100374.53;6276724;22;46674;-71
2023/04/13 08:33:21;;;;;;;;;6.50;3.50;;;;;12.90;53.45;100368.38;6277725;22;45244;-71
2023/04/13 08:35:47;;;;;;;;;3.50;3.00;;;;;12.88;52.79;100354.19;6277111;22;45170;-71
2023/04/13 08:38:12;;;;;;;;;5.50;3.00;;;;;13.06;53.01;100364.97;6277699;22;44752;-71
2023/04/13 08:40:39;;;;;;;;;5.25;4.00;;;;;13.25;52.99;100376.59;6277537;22;45589;-71
2023/04/13 08:43:06;;;;;;;;;4.00;2.67;;;;;13.32;51.58;100353.66;6249717;22;45126;-71
2023/04/13 08:45:31;;;;;;;;;6.00;3.00;;;;;13.56;51.98;100356.44;6277345;22;45370;-71
2023/04/13 08:47:57;;;;;;;;;4.75;2.50;;;;;13.91;51.13;100398.22;6277034;22;45165;-71
2023/04/13 08:50:25;;;;;;;;;2.00;2.00;;;;;13.98;51.56;100367.25;6277628;22;45341;-72
2023/04/13 08:52:51;;;;;;;;;4.00;3.00;;;;;14.10;50.19;100370.81;6248417;22;45601;-72
2023/04/13 08:55:16;;;;;;;;;2.00;2.00;;;;;14.41;50.85;100368.25;6277260;22;45324;-72
2023/04/13 08:57:43;;;;;;;;;3.00;3.00;;;;;14.61;50.23;100373.63;6277465;22;45108;-72
2023/04/13 09:00:15;;;;;;;;;2.67;1.67;;;;;14.78;49.58;100385.16;6277426;22;45405;-73
2023/04/13 09:02:46;;;;;;;;;3.00;2.00;;;;;14.76;47.35;100370.97;6276027;22;45231;-72
2023/04/13 09:05:16;;;;;;;;;2.00;2.00;;;;;14.93;47.54;100372.75;6277672;22;45324;-72
2023/04/13 09:07:55;;;;;;;;;3.00;2.00;;;;;15.06;47.99;100386.94;6276992;22;45179;-72
2023/04/13 09:10:22;;;;;;;;;2.67;2.33;;;;;15.24;46.53;100389.59;6245527;22;46720;-72
2023/04/13 09:12:49;;;;;;;;;5.00;3.00;;;;;15.42;48.57;100383.34;6275277;22;45310;-72
2023/04/13 09:15:15;;;;;;;;;3.67;1.33;;;;;15.58;47.81;100376.19;6277249;22;45192;-73
2023/04/13 09:17:40;;;;;;;;;2.00;1.00;;;;;15.73;46.73;100380.63;6247410;22;46821;-71
2023/04/13 09:20:12;;;;;;;;;3.00;2.00;;;;;15.87;46.89;100386.78;6249427;22;47234;-72
2023/04/13 09:22:38;;;;;;;;;0.00;0.00;;;;;15.92;47.03;100363.66;6276733;22;45325;-73
2023/04/13 09:25:04;;;;;;;;;3.67;2.00;;;;;16.17;46.35;100379.53;6277293;22;45591;-72
2023/04/13 09:27:29;;;;;;;;;3.67;2.00;;;;;16.26;45.27;100371.47;6276861;22;45536;-72
2023/04/13 09:29:55;;;;;;;;;2.67;2.00;;;;;16.51;45.05;100372.22;6277047;22;45260;-73
2023/04/13 09:32:23;;;;;;;;;2.00;1.33;;;;;16.53;42.69;100367.75;6274672;22;45231;-73
2023/04/13 09:35:07;;;;;;;;;1.00;1.00;;;;;16.72;45.26;100379.16;6248363;22;45293;-73
2023/04/13 09:37:35;;;;;;;;;2.00;2.00;;;;;16.64;43.03;100375.69;6276807;22;45176;-73
2023/04/13 09:40:11;;;;;;;;;2.00;1.00;;;;;16.71;43.65;100383.63;6276976;22;45461;-71
2023/04/13 09:42:53;;;;;;;;;2.67;2.00;;;;;16.74;44.01;100380.03;6248908;22;45340;-72
2023/04/13 09:45:18;;;;;;;;;2.67;1.00;;;;;16.68;43.61;100358.75;6277539;22;45240;-72
2023/04/13 09:47:44;;;;;;;;;1.00;1.00;;;;;16.84;42.52;100368.44;6275882;22;45249;-72
2023/04/13 09:50:27;;;;;;;;;3.00;2.00;;;;;17.04;42.65;100389.63;6276713;22;46273;-72
2023/04/13 09:53:03;;;;;;;;;1.00;1.00;;;;;17.08;41.80;100370.00;6248462;22;45361;-72
2023/04/13 09:55:33;;;;;;;;;6.00;3.00;;;;;17.32;42.33;100376.91;6276158;22;45214;-72
2023/04/13 09:58:12;;;;;;;;;5.00;1.67;;;;;17.51;41.87;100368.69;6276564;22;45617;-73
2023/04/13 10:00:40;;;;;;;;;3.00;1.00;;;;;17.55;40.51;100373.97;6276329;22;45204;-73
2023/04/13 10:03:11;;;;;;;;;1.33;1.33;;;;;17.62;40.89;100369.47;6247642;22;45399;-73
2023/04/13 10:05:37;;;;;;;;;2.00;1.00;;;;;17.57;41.13;100371.28;6249469;22;45129;-72
2023/04/13 10:08:04;;;;;;;;;2.33;1.67;;;;;17.50;39.92;100385.63;6277410;22;45337;-72
2023/04/13 10:10:30;;;;;;;;;1.00;1.00;;;;;17.31;38.96;100361.78;6248873;22;46489;-72
2023/04/13 10:12:59;;;;;;;;;1.00;1.00;;;;;17.29;38.39;100360.91;6277337;22;45212;-72
2023/04/13 10:15:46;;;;;;;;;2.00;2.00;;;;;17.58;40.56;100381.06;6249422;22;45282;-72
2023/04/13 10:18:41;;;;;;;;;3.00;1.67;;;;;17.87;40.47;100375.44;6249096;22;46285;-72
2023/04/13 10:21:08;;;;;;;;;2.00;0.67;;;;;17.86;39.69;100347.78;6220920;22;45702;-72
2023/04/13 10:23:36;;;;;;;;;1.00;1.00;;;;;18.18;38.09;100369.69;6277203;22;45225;-72
2023/04/13 10:26:02;;;;;;;;;3.00;2.00;;;;;18.26;38.16;100362.41;6276654;22;45308;-72
2023/04/13 10:28:40;;;;;;;;;3.00;1.00;;;;;18.01;37.70;100365.44;6277352;22;45446;-73
2023/04/13 10:31:07;;;;;;;;;1.00;1.00;;;;;17.94;37.96;100371.75;6276482;22;45370;-72
2023/04/13 10:33:32;;;;;;;;;0.67;0.00;;;;;17.80;37.94;100361.25;6249432;22;45588;-72
2023/04/13 10:36:00;;;;;;;;;0.00;0.00;;;;;17.76;37.25;100345.25;6277240;22;45569;-71
2023/04/13 10:38:26;;;;;;;;;1.00;1.00;;;;;17.99;37.25;100369.91;6277296;22;45390;-72
2023/04/13 10:40:51;;;;;;;;;3.67;2.00;;;;;18.01;34.77;100361.84;6249836;22;46699;-71
2023/04/13 10:43:28;;;;;;;;;2.67;0.00;;;;;17.82;35.66;100334.50;6278391;22;45193;-72
2023/04/13 10:46:12;;;;;;;;;2.33;1.00;;;;;17.98;35.69;100367.25;6278182;22;45446;-71
2023/04/13 10:48:41;;;;;;;;;1.00;1.00;;;;;18.11;35.07;100376.91;6277859;22;45442;-72
2023/04/13 10:51:06;;;;;;;;;1.00;0.67;;;;;17.93;34.05;100350.41;6277224;22;45531;-71
2023/04/13 10:53:33;;;;;;;;;1.67;1.00;;;;;17.66;35.16;100365.84;6250507;22;44614;-71
2023/04/13 10:56:00;;;;;;;;;1.67;0.67;;;;;17.22;35.26;100362.75;6250663;22;45198;-71
2023/04/13 10:58:27;;;;;;;;;3.00;3.00;;;;;17.06;35.20;100381.63;6278184;22;45465;-70
2023/04/13 11:00:53;;;;;;;;;3.00;2.00;;;;;16.83;36.00;100380.00;6277631;22;45260;-72
2023/04/13 11:03:19;;;;;;;;;2.00;2.00;;;;;16.42;35.61;100378.50;6277968;22;45212;-72
2023/04/13 11:05:47;;;;;;;;;2.33;1.33;;;;;16.08;37.17;100370.69;6277920;22;45343;-72
2023/04/13 11:08:19;;;;;;;;;4.00;2.00;;;;;15.92;37.82;100384.09;6250027;22;46359;-72
2023/04/13 11:10:55;;;;;;;;;2.00;2.00;;;;;15.52;36.42;100395.75;6277048;22;45391;-72
2023/04/13 11:13:24;;;;;;;;;2.00;1.00;;;;;15.22;36.98;100404.66;6277951;22;45256;-72
2023/04/13 11:15:50;;;;;;;;;3.33;1.00;;;;;14.95;37.26;100377.16;6277418;22;45212;-72
2023/04/13 11:18:25;;;;;;;;;3.00;1.00;;;;;15.03;38.32;100363.84;6277846;22;45177;-73
2023/04/13 11:20:51;;;;;;;;;1.67;1.67;;;;;15.47;38.37;100396.66;6249732;22;46940;-73
2023/04/13 11:23:17;;;;;;;;;1.00;1.00;;;;;15.75;37.80;100381.50;6250469;22;45519;-73
2023/04/13 11:26:00;;;;;;;;;0.67;0.67;;;;;16.23;38.08;100380.38;6278332;22;45326;-73
2023/04/13 11:28:42;;;;;;;;;4.00;1.33;;;;;16.54;38.63;100365.06;6278360;22;45287;-73
2023/04/13 11:31:09;;;;;;;;;4.67;3.00;;;;;16.81;37.27;100357.78;6277244;22;46506;-73
2023/04/13 11:33:35;;;;;;;;;2.00;2.00;;;;;16.92;37.27;100357.72;6277741;22;45230;-73
2023/04/13 11:36:01;;;;;;;;;2.67;2.00;;;;;17.00;38.09;100362.06;6277729;22;45455;-73
2023/04/13 11:38:27;;;;;;;;;2.67;2.67;;;;;16.95;38.87;100352.34;6250327;22;45701;-72
2023/04/13 11:41:00;;;;;;;;;1.00;1.00;;;;;16.96;38.81;100359.44;6277893;22;45411;-72
2023/04/13 11:43:26;;;;;;;;;2.00;1.67;;;;;16.78;38.81;100341.81;6277220;22;45517;-72
2023/04/13 11:45:52;;;;;;;;;8.00;7.33;;;;;16.69;39.08;100372.09;6277257;22;45477;-73
2023/04/13 11:48:18;;;;;;;;;1.00;1.00;;;;;16.63;38.92;100368.56;6277634;22;45613;-73
2023/04/13 11:50:45;;;;;;;;;4.00;4.00;;;;;16.83;39.12;100360.44;6276721;22;45380;-74
2023/04/13 11:53:11;;;;;;;;;1.00;1.00;;;;;17.15;38.34;100378.84;6278032;22;45306;-73
2023/04/13 11:55:38;;;;;;;;;2.00;2.00;;;;;17.12;37.59;100371.75;6277762;22;45287;-73
2023/04/13 11:58:09;;;;;;;;;1.33;1.33;;;;;17.03;36.18;100366.50;6277777;22;45166;-73
2023/04/13 12:00:39;;;;;;;;;0.00;0.00;;;;;17.17;36.63;100377.06;6273504;22;46055;-73
2023/04/13 12:03:12;;;;;;;;;2.00;1.00;;;;;17.38;37.02;100383.97;6274769;22;45223;-73
2023/04/13 12:05:37;;;;;;;;;2.00;1.00;;;;;17.60;36.71;100366.78;6275504;22;45193;-73
2023/04/13 12:08:03;;;;;;;;;2.00;1.00;;;;;17.99;35.65;100366.38;6276093;22;45360;-73
2023/04/13 12:10:30;;;;;;;;;2.00;2.00;;;;;18.23;36.60;100360.69;6276437;22;45866;-70
2023/04/13 12:12:59;;;;;;;;;0.00;0.00;;;;;18.34;35.16;100342.69;6276028;22;45266;-73
2023/04/13 12:15:30;;;;;;;;;2.00;1.00;;;;;18.61;35.45;100347.63;6276485;22;45307;-73
2023/04/13 12:17:57;;;;;;;;;2.00;1.33;;;;;18.75;34.95;100324.22;6275389;22;45295;-70
2023/04/13 12:20:24;;;;;;;;;0.67;0.67;;;;;19.23;36.08;100356.41;6276543;22;46114;-70
2023/04/13 12:22:50;;;;;;;;;5.00;2.00;;;;;19.34;35.34;100337.47;6275817;22;45346;-71
2023/04/13 12:25:22;;;;;;;;;2.00;2.00;;;;;19.51;35.05;100338.00;6248914;22;45331;-71
2023/04/13 12:27:50;;;;;;;;;1.33;1.33;;;;;19.58;33.29;100331.63;6275421;22;45347;-72
2023/04/13 12:30:16;;;;;;;;;2.00;2.00;;;;;19.41;34.07;100315.88;6246920;22;47392;-72
2023/04/13 12:32:42;;;;;;;;;3.67;1.00;;;;;19.34;36.01;100324.06;6275189;22;45247;-72
2023/04/13 12:35:08;;;;;;;;;2.00;1.00;;;;;18.84;34.61;100309.78;6274707;22;45239;-71
2023/04/13 12:37:40;;;;;;;;;1.00;1.00;;;;;18.70;35.46;100347.47;6276786;22;45212;-70
2023/04/13 12:40:11;;;;;;;;;3.00;1.00;;;;;18.23;36.51;100368.72;6277532;22;45549;-70
2023/04/13 12:42:46;;;;;;;;;2.00;2.00;;;;;17.57;37.83;100358.81;6277063;22;45236;-70
2023/04/13 12:45:13;;;;;;;;;2.00;1.00;;;;;16.85;43.20;100369.31;6277722;22;45397;-69
2023/04/13 12:47:38;;;;;;;;;4.00;2.33;;;;;16.70;41.99;100359.63;6276425;22;45456;-71
2023/04/13 12:50:06;;;;;;;;;1.67;1.67;;;;;16.64;43.31;100349.00;6277434;22;45349;-71
2023/04/13 12:52:32;;;;;;;;;2.67;2.67;;;;;16.78;42.13;100358.69;6277032;22;45240;-71
2023/04/13 12:54:58;;;;;;;;;2.33;1.67;;;;;16.80;42.00;100355.13;6249776;22;45273;-72
2023/04/13 12:57:25;;;;;;;;;3.67;1.00;;;;;16.69;41.22;100323.13;6248863;22;45547;-71
2023/04/13 12:59:51;;;;;;;;;3.00;2.67;;;;;16.85;41.87;100343.50;6277403;22;45902;-71
2023/04/13 13:02:16;;;;;;;;;1.00;1.00;;;;;17.06;41.41;100341.56;6275229;22;45238;-71
2023/04/13 13:04:41;;;;;;;;;3.00;2.00;;;;;17.21;41.31;100320.03;6277818;22;45334;-72
2023/04/13 13:07:07;;;;;;;;;5.00;1.00;;;;;17.35;39.90;100318.09;6248970;22;46869;-73
2023/04/13 13:09:32;;;;;;;;;0.00;0.00;;;;;17.64;38.75;100330.22;6276737;22;45414;-73
2023/04/13 13:11:58;;;;;;;;;2.00;2.00;;;;;17.98;37.78;100345.84;6277114;22;45290;-72
2023/04/13 13:14:23;;;;;;;;;0.67;0.67;;;;;18.23;37.42;100330.34;6277373;22;45282;-72
2023/04/13 13:16:49;;;;;;;;;1.33;1.33;;;;;18.33;38.38;100303.44;6248312;22;45417;-72
2023/04/13 13:19:15;;;;;;;;;1.67;1.00;;;;;18.71;36.82;100328.72;6276938;22;45243;-72
2023/04/13 13:21:40;;;;;;;;;1.00;1.00;;;;;18.74;37.35;100322.47;6277443;22;44607;-73
2023/04/13 13:24:06;;;;;;;;;1.00;1.00;;;;;19.04;37.50;100325.50;6277434;22;45373;-72
2023/04/13 13:26:32;;;;;;;;;2.00;2.00;;;;;19.17;35.71;100341.34;6277473;22;45204;-72
2023/04/13 13:28:58;;;;;;;;;2.67;1.33;;;;;19.15;34.28;100332.44;6277359;22;46600;-73
2023/04/13 13:31:23;;;;;;;;;1.33;1.00;;;;;19.07;34.48;100317.41;6276833;22;45164;-72
2023/04/13 13:33:48;;;;;;;;;2.67;0.67;;;;;19.02;33.13;100317.50;6277868;22;45159;-72
2023/04/13 13:36:14;;;;;;;;;1.00;1.00;;;;;19.36;32.69;100343.69;6276935;22;45281;-74
2023/04/13 13:38:41;;;;;;;;;3.67;1.00;;;;;19.27;34.36;100325.06;6277388;22;45524;-73
2023/04/13 13:41:06;;;;;;;;;2.67;2.67;;;;;19.03;33.96;100326.44;6276552;22;45290;-72
2023/04/13 13:43:32;;;;;;;;;2.00;2.00;;;;;18.88;34.29;100344.53;6250115;22;45365;-73
2023/04/13 13:45:57;;;;;;;;;1.00;1.00;;;;;18.47;33.69;100315.72;6249110;22;45912;-72
2023/04/13 13:48:22;;;;;;;;;0.67;0.00;;;;;18.28;34.19;100325.81;6277483;22;45374;-72
2023/04/13 13:50:48;;;;;;;;;3.00;0.67;;;;;18.25;33.46;100329.44;6276854;22;45314;-72
2023/04/13 13:53:14;;;;;;;;;2.00;2.00;;;;;18.42;33.99;100339.00;6249165;22;45300;-72
2023/04/13 13:55:40;;;;;;;;;2.00;0.67;;;;;18.58;34.03;100318.25;6277007;22;45365;-72
2023/04/13 13:58:06;;;;;;;;;4.00;1.00;;;;;18.89;32.59;100330.22;6249447;22;46859;-72
2023/04/13 14:00:31;;;;;;;;;2.00;1.00;;;;;18.85;34.07;100307.09;6276917;22;45291;-72
2023/04/13 14:02:57;;;;;;;;;1.00;1.00;;;;;19.01;32.52;100327.31;6248738;22;45382;-72
2023/04/13 14:05:22;;;;;;;;;2.00;0.67;;;;;19.22;33.45;100333.22;6248937;22;45424;-72
2023/04/13 14:07:48;;;;;;;;;0.00;0.00;;;;;19.28;32.58;100337.59;6249038;22;45252;-72
2023/04/13 14:10:13;;;;;;;;;1.33;1.00;;;;;19.23;34.35;100329.63;6249465;22;45620;-72
2023/04/13 14:12:42;;;;;;;;;1.33;1.00;;;;;19.18;34.25;100351.13;6276645;22;45579;-72
2023/04/13 14:15:09;;;;;;;;;0.33;0.33;;;;;18.74;34.68;100303.72;6274625;22;45232;-73
2023/04/13 14:17:35;;;;;;;;;4.33;0.67;;;;;18.64;34.83;100337.75;6274935;22;46048;-72
2023/04/13 14:20:05;;;;;;;;;2.00;1.00;;;;;18.50;35.71;100350.47;6276131;22;45132;-72
2023/04/13 14:22:30;;;;;;;;;3.00;1.00;;;;;18.29;35.25;100338.31;6274054;22;45289;-72
2023/04/13 14:24:57;;;;;;;;;1.33;1.33;;;;;18.26;35.43;100335.66;6277075;22;45446;-73
2023/04/13 14:27:22;;;;;;;;;2.67;2.00;;;;;18.27;35.66;100342.78;6276784;22;45280;-73
2023/04/13 14:29:47;;;;;;;;;1.00;0.67;;;;;18.15;35.25;100345.63;6277205;22;45183;-73
2023/04/13 14:32:12;;;;;;;;;2.00;2.00;;;;;18.21;35.41;100349.13;6276027;22;45220;-73
2023/04/13 14:34:38;;;;;;;;;1.00;1.00;;;;;18.08;35.76;100310.94;6277144;22;45341;-72
2023/04/13 14:37:03;;;;;;;;;1.00;1.00;;;;;18.20;35.78;100325.06;6276664;22;45338;-72
2023/04/13 14:39:29;;;;;;;;;1.33;1.33;;;;;18.15;36.32;100326.91;6249297;22;45329;-72
2023/04/13 14:41:55;;;;;;;;;9.00;3.00;;;;;18.11;35.41;100328.75;6276643;22;45228;-73
2023/04/13 14:44:20;;;;;;;;;3.67;2.33;;;;;17.86;35.63;100302.34;6248772;22;45726;-73
2023/04/13 14:46:46;;;;;;;;;2.00;1.00;;;;;17.80;35.70;100325.59;6276413;22;45276;-72
2023/04/13 14:49:11;;;;;;;;;0.33;0.33;;;;;17.46;36.39;100312.63;6277314;22;45238;-72
2023/04/13 14:51:36;;;;;;;;;0.00;0.00;;;;;17.33;35.80;100325.22;6277225;22;45292;-73
2023/04/13 14:54:02;;;;;;;;;1.00;1.00;;;;;17.23;36.43;100320.91;6276986;22;45504;-72
2023/04/13 14:56:28;;;;;;;;;2.00;1.00;;;;;17.17;36.19;100340.53;6276986;22;45245;-72
2023/04/13 14:58:54;;;;;;;;;0.33;0.33;;;;;17.09;36.92;100330.84;6248120;22;45260;-72
2023/04/13 15:01:20;;;;;;;;;2.67;1.67;;;;;17.03;36.71;100314.84;6276452;22;45170;-72
2023/04/13 15:03:46;;;;;;;;;2.00;1.00;;;;;17.21;36.66;100339.59;6248178;22;45886;-72
2023/04/13 15:06:11;;;;;;;;;2.00;2.00;;;;;17.19;36.53;100340.50;6276428;22;45190;-72
2023/04/13 15:08:37;;;;;;;;;1.00;1.00;;;;;17.28;36.18;100327.09;6277187;22;45194;-73
2023/04/13 15:11:03;;;;;;;;;2.00;2.00;;;;;17.33;36.11;100321.66;6276595;22;45452;-72
2023/04/13 15:13:28;;;;;;;;;1.00;1.00;;;;;17.38;36.66;100290.44;6248415;22;46857;-73
2023/04/13 15:15:54;;;;;;;;;2.33;1.00;;;;;17.76;35.47;100340.78;6276227;22;50296;-73
2023/04/13 15:18:19;;;;;;;;;2.00;1.00;;;;;17.95;36.16;100329.84;6276619;22;45292;-73
2023/04/13 15:20:45;;;;;;;;;3.33;1.00;;;;;17.95;34.60;100322.72;6249135;22;45295;-73
2023/04/13 15:23:10;;;;;;;;;2.33;0.67;;;;;17.97;35.24;100306.66;6276192;22;45373;-73
2023/04/13 15:25:37;;;;;;;;;6.00;3.00;;;;;18.15;34.77;100316.19;6277195;22;46402;-73
2023/04/13 15:28:03;;;;;;;;;1.33;1.00;;;;;18.29;33.09;100317.78;6278095;22;45254;-73
2023/04/13 15:30:30;;;;;;;;;1.67;1.00;;;;;18.43;32.24;100325.59;6250697;22;44731;-73
2023/04/13 15:32:58;;;;;;;;;2.00;0.00;;;;;18.50;33.71;100321.91;6277376;22;45381;-73
2023/04/13 15:35:24;;;;;;;;;3.33;2.00;;;;;18.53;33.17;100315.63;6277990;22;45309;-73
2023/04/13 15:37:50;;;;;;;;;2.00;2.00;;;;;18.68;33.47;100318.06;6277690;22;45366;-73
2023/04/13 15:40:18;;;;;;;;;0.67;0.67;;;;;18.77;34.36;100317.06;6278423;22;45399;-73
2023/04/13 15:42:43;;;;;;;;;2.33;2.00;;;;;18.93;32.75;100317.66;6277679;22;45185;-72
2023/04/13 15:45:09;;;;;;;;;3.67;2.00;;;;;19.10;33.58;100328.97;6277958;22;46216;-72
2023/04/13 15:47:35;;;;;;;;;1.00;1.00;;;;;19.12;32.14;100297.66;6277405;22;45188;-72
2023/04/13 15:50:02;;;;;;;;;1.33;0.67;;;;;18.98;33.36;100313.09;6278352;22;45223;-72
2023/04/13 15:52:28;;;;;;;;;0.00;0.00;;;;;18.87;29.89;100317.78;6277736;22;45294;-72
2023/04/13 15:54:53;;;;;;;;;1.33;0.00;;;;;18.62;30.15;100298.53;6250259;22;45296;-72
2023/04/13 15:57:19;;;;;;;;;0.00;0.00;;;;;18.63;32.58;100325.28;6249601;22;51837;-72
2023/04/13 15:59:44;;;;;;;;;0.67;0.67;;;;;18.44;32.01;100313.97;6278591;22;45251;-72
2023/04/13 16:02:10;;;;;;;;;2.00;0.00;;;;;18.42;32.22;100323.81;6276266;22;45286;-72
2023/04/13 16:04:35;;;;;;;;;0.67;0.67;;;;;18.16;33.55;100297.47;6249657;22;46788;-72
2023/04/13 16:07:00;;;;;;;;;1.00;1.00;;;;;18.00;31.94;100307.50;6277235;22;45267;-72
2023/04/13 16:09:29;;;;;;;;;5.00;1.00;;;;;17.89;33.54;100307.63;6278064;22;45249;-73
2023/04/13 16:11:55;;;;;;;;;0.00;0.00;;;;;17.82;33.25;100338.06;6277503;22;45227;-69
2023/04/13 16:14:20;;;;;;;;;0.67;0.67;;;;;17.52;33.17;100314.34;6275658;22;45244;-70
2023/04/13 16:16:51;;;;;;;;;1.67;0.67;;;;;17.37;32.48;100331.44;6276995;22;44590;-69
2023/04/13 16:19:17;;;;;;;;;0.00;0.00;;;;;17.14;33.63;100328.97;6277848;22;45264;-70
2023/04/13 16:21:43;;;;;;;;;0.00;0.00;;;;;17.00;33.59;100326.47;6277402;22;45686;-68
2023/04/13 16:24:09;;;;;;;;;1.33;0.33;;;;;16.84;33.02;100336.41;6277397;22;45333;-69
2023/04/13 16:26:35;;;;;;;;;0.00;0.00;;;;;16.79;33.02;100348.91;6249864;22;45523;-70
2023/04/13 16:29:01;;;;;;;;;4.00;1.00;;;;;16.61;33.30;100344.56;6277365;22;45259;-70
2023/04/13 16:31:27;;;;;;;;;2.00;1.00;;;;;16.61;33.95;100349.00;6277064;22;45299;-70
2023/04/13 16:33:53;;;;;;;;;0.33;0.33;;;;;16.59;33.83;100346.38;6249848;22;45770;-70
2023/04/13 16:36:18;;;;;;;;;1.00;0.00;;;;;16.58;34.39;100349.03;6277561;22;45271;-70
2023/04/13 16:38:45;;;;;;;;;1.00;1.00;;;;;16.61;34.32;100357.91;6277526;22;45247;-70
2023/04/13 16:41:10;;;;;;;;;0.00;0.00;;;;;16.71;34.39;100364.06;6249330;22;45712;-70
2023/04/13 16:43:36;;;;;;;;;1.00;1.00;;;;;16.64;34.44;100360.56;6277939;22;45283;-70
2023/04/13 16:46:01;;;;;;;;;0.00;0.00;;;;;16.67;34.02;100357.88;6277354;22;45285;-70
2023/04/13 16:48:28;;;;;;;;;0.00;0.00;;;;;16.67;33.67;100349.84;6278099;22;45193;-69
2023/04/13 16:51:01;;;;;;;;;2.00;0.33;;;;;16.74;33.61;100362.25;6276510;22;45309;-70
2023/04/13 16:53:26;;;;;;;;;1.00;0.00;;;;;16.63;33.62;100339.22;6249931;22;46382;-70
2023/04/13 16:55:52;;;;;;;;;2.00;0.67;;;;;16.73;33.23;100348.94;6277786;22;45448;-70
2023/04/13 16:58:17;;;;;;;;;2.67;0.00;;;;;16.69;33.72;100369.44;6278284;22;45253;-70
2023/04/13 17:00:46;;;;;;;;;2.33;1.00;;;;;16.73;33.29;100368.50;6277583;22;45393;-70
2023/04/13 17:03:11;;;;;;;;;0.00;0.00;;;;;16.82;34.14;100372.91;6277023;22;45358;-70
2023/04/13 17:05:37;;;;;;;;;1.00;1.00;;;;;16.87;33.14;100378.22;6277434;22;45160;-70
2023/04/13 17:08:03;;;;;;;;;0.00;0.00;;;;;16.96;33.78;100362.97;6277875;22;45272;-70
2023/04/13 17:10:29;;;;;;;;;3.00;3.00;;;;;16.97;33.89;100358.53;6250109;22;45334;-70
2023/04/13 17:12:55;;;;;;;;;1.33;0.00;;;;;17.00;33.83;100355.84;6276139;22;45436;-70
2023/04/13 17:15:20;;;;;;;;;1.00;1.00;;;;;16.97;33.85;100359.44;6277598;22;45252;-70
2023/04/13 17:17:46;;;;;;;;;1.50;0.00;;;;;16.96;33.87;100362.97;6276934;22;45257;-70
2023/04/13 17:20:11;;;;;;;;;0.00;0.00;;;;;16.77;32.46;100354.25;6276783;22;45421;-70
2023/04/13 17:22:37;;;;;;;;;0.33;0.00;;;;;16.74;32.48;100370.25;6276915;22;46577;-70
2023/04/13 17:25:03;;;;;;;;;1.00;0.00;;;;;16.59;33.38;100361.50;6249872;22;45284;-70
2023/04/13 17:27:29;;;;;;;;;0.00;0.00;;;;;16.51;32.52;100381.09;6277569;22;45228;-70
2023/04/13 17:29:55;;;;;;;;;0.67;0.67;;;;;16.25;32.71;100365.25;6277578;22;45094;-70
2023/04/13 17:32:21;;;;;;;;;0.67;0.67;;;;;16.14;33.86;100376.91;6276734;22;45153;-70
2023/04/13 17:34:47;;;;;;;;;1.67;1.67;;;;;16.07;33.30;100381.34;6277581;22;45281;-69
2023/04/13 17:37:12;;;;;;;;;1.00;1.00;;;;;15.82;33.77;100381.47;6277912;22;45317;-69
2023/04/13 17:39:41;;;;;;;;;2.00;0.67;;;;;15.53;33.68;100370.88;6276890;22;45397;-69
2023/04/13 17:42:08;;;;;;;;;1.00;1.00;;;;;15.53;33.98;100408.16;6249190;22;46074;-69
2023/04/13 17:44:33;;;;;;;;;1.00;1.00;;;;;15.30;34.33;100389.56;6249619;22;45246;-69
2023/04/13 17:46:58;;;;;;;;;0.00;0.00;;;;;15.05;33.95;100388.72;6276731;22;45372;-69
2023/04/13 17:49:25;;;;;;;;;1.00;0.00;;;;;14.94;34.88;100388.72;6249516;22;45244;-69
2023/04/13 17:51:50;;;;;;;;;1.00;1.00;;;;;14.83;34.47;100398.47;6277211;22;46117;-69
2023/04/13 17:54:16;;;;;;;;;1.67;0.00;;;;;14.81;35.01;100420.63;6249703;22;45204;-69
2023/04/13 17:56:41;;;;;;;;;5.33;3.67;;;;;14.68;35.67;100415.31;6277415;22;45402;-69
2023/04/13 17:59:06;;;;;;;;;8.67;6.00;;;;;14.51;35.47;100406.38;6249166;22;45926;-69
2023/04/13 18:01:32;;;;;;;;;7.25;6.50;;;;;14.52;36.28;100425.03;6276494;22;45260;-69
2023/04/13 18:03:58;;;;;;;;;7.33;6.00;;;;;14.45;37.44;100428.53;6277243;22;45216;-69
2023/04/13 18:06:23;;;;;;;;;56.75;44.00;;;;;14.23;37.70;100405.44;6277413;22;45459;-69
2023/04/13 18:08:49;;;;;;;;;5.00;5.00;;;;;14.25;38.18;100415.16;6277267;22;45408;-69
2023/04/13 18:11:14;;;;;;;;;9.00;9.00;;;;;14.10;38.03;100402.72;6249062;22;46548;-69
2023/04/13 18:13:40;;;;;;;;;43.00;35.75;;;;;14.15;39.22;100434.66;6276680;22;45238;-69
2023/04/13 18:16:05;;;;;;;;;47.00;35.00;;;;;14.03;39.23;100429.25;6248923;22;45391;-69
2023/04/13 18:18:31;;;;;;;;;3.50;3.50;;;;;14.09;39.01;100462.09;6277329;22;45209;-69
2023/04/13 18:20:56;;;;;;;;;3.33;3.33;;;;;13.92;39.46;100457.56;6276848;22;45740;-69
2023/04/13 18:23:22;;;;;;;;;1.67;1.00;;;;;13.88;40.29;100484.09;6277167;22;45258;-69